Time;durP1;ratioP1;P1;durP2;ratioP2;P2;SDS_P1;SDS_P2;PMS_P1;PMS_P2;Temp;Humidity;BMP_temperature;BMP_pressure;BME280_temperature;BME280_humidity;BME280_pressure;Samples;Min_cycle;Max_cycle;Signal;HPM_P1;HPM_P2
2022/04/28 00:00:40;;;;;;;6.15;5.53;;;11.10;97.60;;;10.77;100.00;101368.34;4987634;28;20046;-77
2022/04/28 00:03:09;;;;;;;8.57;5.43;;;11.90;97.90;;;10.73;100.00;101375.41;4988284;28;20497;-78
2022/04/28 00:05:37;;;;;;;6.97;6.28;;;11.00;97.60;;;10.70;100.00;101366.66;4988030;28;20046;-78
2022/04/28 00:08:22;;;;;;;7.20;6.50;;;10.90;97.80;;;10.67;100.00;101370.19;4974267;28;20041;-78
2022/04/28 00:10:52;;;;;;;6.88;6.20;;;10.90;97.80;;;10.60;100.00;101360.59;4987431;28;20104;-78
2022/04/28 00:13:19;;;;;;;6.43;5.82;;;10.90;97.90;;;10.57;100.00;101366.75;4987474;28;20049;-77
2022/04/28 00:15:46;;;;;;;7.18;6.35;;;11.50;98.00;;;10.52;100.00;101368.56;4986765;28;20042;-77
2022/04/28 00:18:13;;;;;;;8.32;6.47;;;10.80;97.90;;;10.46;100.00;101372.09;4971724;28;20384;-77
2022/04/28 00:20:44;;;;;;;6.90;5.70;;;10.80;97.90;;;10.45;100.00;101365.09;4973149;28;20054;-79
2022/04/28 00:23:11;;;;;;;9.68;7.53;;;10.70;97.90;;;10.42;100.00;101372.13;4994312;28;20073;-78
2022/04/28 00:25:38;;;;;;;6.55;5.95;;;11.50;98.20;;;10.29;100.00;101358.16;4994350;28;20054;-79
2022/04/28 00:28:05;;;;;;;6.88;6.28;;;10.90;98.30;;;10.27;100.00;101367.84;4977161;28;20054;-79
2022/04/28 00:30:32;;;;;;;8.48;7.65;;;10.60;98.20;;;10.20;100.00;101374.88;4992466;28;20054;-77
2022/04/28 00:33:02;;;;;;;7.03;6.32;;;10.50;98.20;;;10.08;100.00;101373.22;4989664;28;20212;-77
2022/04/28 00:35:32;;;;;;;6.20;5.57;;;10.50;98.30;;;10.07;100.00;101367.06;4987782;28;20050;-78
2022/04/28 00:38:01;;;;;;;9.25;5.93;;;10.40;98.40;;;10.00;100.00;101365.38;4987774;28;20062;-78
2022/04/28 00:40:29;;;;;;;7.18;6.45;;;10.40;98.30;;;9.97;100.00;101372.41;4991434;28;20046;-78
2022/04/28 00:43:18;;;;;;;6.82;6.18;;;10.30;98.40;;;9.89;100.00;101369.81;4976802;28;20084;-77
2022/04/28 00:45:43;;;;;;;7.60;6.22;;;10.20;98.40;;;9.75;100.00;101372.47;4993107;28;20054;-78
2022/04/28 00:51:00;;;;;;;7.25;6.53;;;10.10;98.40;;;9.82;100.00;101375.94;4978393;28;20050;-77
2022/04/28 00:53:30;;;;;;;7.50;6.80;;;10.10;98.30;;;9.83;100.00;101369.81;4975197;28;20050;-77
2022/04/28 00:55:58;;;;;;;9.65;6.40;;;10.10;98.80;;;9.65;100.00;101382.16;4991429;28;20042;-77
2022/04/28 00:58:26;;;;;;;8.73;6.15;;;10.00;98.80;;;9.58;100.00;101383.06;4975099;28;20042;-78
2022/04/28 01:00:55;;;;;;;7.05;6.10;;;10.00;98.50;;;9.47;100.00;101373.47;4974808;28;20050;-78
2022/04/28 01:03:23;;;;;;;8.55;7.30;;;10.10;98.80;;;9.45;100.00;101384.88;4973812;28;20104;-77
2022/04/28 01:05:50;;;;;;;7.15;6.45;;;11.10;99.00;;;9.47;100.00;101380.50;4973582;28;20046;-76
2022/04/28 01:08:17;;;;;;;9.55;6.45;;;10.70;98.80;;;9.50;100.00;101381.34;4989626;28;20133;-77
2022/04/28 01:10:44;;;;;;;6.93;6.22;;;9.80;98.60;;;9.52;100.00;101381.34;4974231;28;20058;-76
2022/04/28 01:13:11;;;;;;;6.63;6.03;;;9.80;98.60;;;9.38;100.00;101378.75;4973813;28;20054;-77
2022/04/28 01:15:49;;;;;;;7.22;6.53;;;9.70;98.60;;;9.43;100.00;101386.59;4973620;28;20230;-77
2022/04/28 01:18:18;;;;;;;7.10;6.20;;;10.10;98.80;;;9.41;100.00;101380.50;5003939;28;20062;-78
2022/04/28 01:20:46;;;;;;;9.45;7.28;;;9.70;98.90;;;9.35;100.00;101382.25;4972686;28;20046;-78
2022/04/28 01:23:13;;;;;;;7.53;6.72;;;10.10;99.00;;;9.36;100.00;101383.13;4988744;28;20063;-76
2022/04/28 01:25:41;;;;;;;8.57;6.82;;;9.70;98.80;;;9.27;100.00;101389.28;4974225;28;20056;-77
2022/04/28 01:28:08;;;;;;;9.27;6.65;;;9.60;99.10;;;9.28;100.00;101391.03;4975024;28;20112;-78
2022/04/28 01:30:37;;;;;;;7.07;5.80;;;9.60;99.00;;;9.26;100.00;101386.66;4974321;28;20056;-77
2022/04/28 01:33:05;;;;;;;8.32;6.63;;;9.80;99.00;;;9.18;100.00;101386.69;4974629;28;20499;-77
2022/04/28 01:35:33;;;;;;;6.95;6.25;;;9.50;99.00;;;9.18;100.00;101389.31;4974140;28;20042;-77
2022/04/28 01:38:01;;;;;;;7.38;6.43;;;9.50;99.10;;;9.14;100.00;101388.44;4974250;28;20542;-77
2022/04/28 01:40:28;;;;;;;8.40;7.30;;;9.50;99.00;;;9.15;100.00;101391.94;4973512;28;20053;-77
2022/04/28 01:42:57;;;;;;;10.05;6.82;;;9.30;99.10;;;9.12;100.00;101386.69;4971195;28;20045;-77
2022/04/28 01:45:24;;;;;;;7.47;6.28;;;9.40;99.00;;;9.10;100.00;101386.69;4958082;28;20039;-78
2022/04/28 01:48:11;;;;;;;7.93;6.68;;;9.40;99.10;;;9.01;100.00;101384.97;4989941;28;20112;-77
2022/04/28 01:56:41;;;;;;;7.10;6.40;;;9.30;99.00;;;8.92;100.00;101398.97;4979205;28;20707;-77
2022/04/28 01:59:19;;;;;;;8.70;7.45;;;9.40;99.20;;;8.91;100.00;101394.59;4974726;28;20046;-78
2022/04/28 02:02:12;;;;;;;9.30;6.68;;;9.30;99.10;;;8.85;100.00;101391.97;4973978;28;20145;-77
2022/04/28 02:04:39;;;;;;;6.63;6.03;;;9.30;99.20;;;8.85;100.00;101394.59;4958522;28;20477;-77
2022/04/28 02:07:07;;;;;;;7.53;6.72;;;9.20;99.20;;;8.83;100.00;101383.22;4974124;28;20507;-77
2022/04/28 02:09:35;;;;;;;7.18;6.47;;;9.40;99.40;;;8.82;100.00;101393.69;4973389;28;20781;-77
2022/04/28 02:12:04;;;;;;;8.23;7.43;;;9.20;99.10;;;8.83;100.00;101387.59;4974785;28;20042;-77
2022/04/28 02:14:31;;;;;;;7.35;6.57;;;9.10;99.20;;;8.72;100.00;101393.72;4992012;28;20458;-77
2022/04/28 02:17:28;;;;;;;6.88;6.18;;;9.10;99.30;;;8.76;100.00;101394.59;4989988;28;20117;-77
2022/04/28 02:19:55;;;;;;;8.00;7.10;;;10.40;99.70;;;8.71;100.00;101388.47;4991444;28;20043;-77
2022/04/28 02:22:23;;;;;;;8.02;7.22;;;9.10;99.30;;;8.56;100.00;101384.09;4993928;28;20050;-78
2022/04/28 02:24:50;;;;;;;7.00;6.30;;;9.00;99.10;;;8.57;100.00;101394.56;4977586;28;20050;-78
2022/04/28 02:27:18;;;;;;;7.22;6.50;;;9.00;99.30;;;8.47;100.00;101398.91;4990499;28;20478;-77
2022/04/28 02:29:46;;;;;;;10.05;6.78;;;8.90;99.30;;;8.34;100.00;101398.03;4988157;28;20065;-76
2022/04/28 02:32:14;;;;;;;7.95;7.13;;;8.80;99.50;;;8.28;100.00;101405.88;4988651;28;20057;-76
2022/04/28 02:34:41;;;;;;;7.35;6.43;;;8.80;99.60;;;8.25;100.00;101413.72;5004753;28;20046;-77
2022/04/28 02:37:09;;;;;;;7.13;6.53;;;8.70;99.60;;;8.06;100.00;101405.81;4988476;28;20050;-76
2022/04/28 02:39:37;;;;;;;8.52;7.03;;;8.60;99.60;;;8.04;100.00;101415.41;5003413;28;20048;-76
2022/04/28 02:42:08;;;;;;;7.18;6.47;;;8.90;99.60;;;8.11;100.00;101411.06;4988702;28;20046;-76
2022/04/28 02:44:35;;;;;;;8.07;6.25;;;8.50;99.50;;;8.02;100.00;101416.28;4988303;28;20054;-77
2022/04/28 02:47:08;;;;;;;7.30;6.60;;;8.50;99.60;;;7.96;100.00;101411.91;4971597;28;20069;-76
2022/04/28 02:49:35;;;;;;;7.40;6.38;;;8.40;99.60;;;7.98;100.00;101412.78;4968218;28;20515;-76
2022/04/28 02:52:06;;;;;;;7.35;6.68;;;8.40;99.80;;;7.93;100.00;101414.50;4985266;28;20137;-76
2022/04/28 02:54:33;;;;;;;9.45;8.45;;;8.30;99.60;;;7.84;100.00;101415.34;4968485;28;20606;-77
2022/04/28 02:57:01;;;;;;;9.50;8.30;;;9.10;99.90;;;7.77;100.00;101416.19;4953056;28;20051;-76
2022/04/28 02:59:28;;;;;;;9.27;7.47;;;8.20;99.90;;;7.85;100.00;101411.00;4967540;28;20483;-76
2022/04/28 03:01:55;;;;;;;7.25;6.50;;;8.50;99.80;;;7.78;100.00;101418.81;4968990;28;20047;-76
2022/04/28 03:04:25;;;;;;;8.57;6.85;;;8.20;99.90;;;7.57;100.00;101416.97;4968262;28;20043;-76
2022/04/28 03:12:31;;;;;;;8.27;7.10;;;8.00;99.80;;;7.49;100.00;101422.19;4984921;28;20047;-76
2022/04/28 03:15:06;;;;;;;8.02;6.72;;;7.90;99.90;;;7.44;100.00;101421.25;4984779;28;20105;-77
2022/04/28 03:17:33;;;;;;;7.78;6.97;;;8.00;99.90;;;7.33;100.00;101418.56;4987693;28;20057;-76
2022/04/28 03:20:01;;;;;;;8.68;7.25;;;7.90;99.90;;;7.11;100.00;101427.16;4986468;28;20097;-77
2022/04/28 03:22:28;;;;;;;8.10;7.30;;;7.80;99.90;;;7.22;100.00;101428.09;4987978;28;20054;-76
2022/04/28 03:24:56;;;;;;;9.00;7.13;;;8.10;99.90;;;7.27;100.00;101429.03;4987306;28;20046;-77
2022/04/28 03:27:23;;;;;;;7.90;6.55;;;7.70;99.90;;;7.27;100.00;101431.63;5003993;28;20042;-76
2022/04/28 03:29:50;;;;;;;7.50;6.80;;;7.70;99.90;;;7.05;100.00;101433.22;5003175;28;20081;-76
2022/04/28 03:32:17;;;;;;;7.85;7.10;;;9.10;99.90;;;6.82;100.00;101431.28;5003964;28;20050;-76
2022/04/28 03:34:47;;;;;;;8.10;7.30;;;7.60;99.70;;;6.79;100.00;101432.16;5003149;28;20041;-76
2022/04/28 03:37:15;;;;;;;7.80;6.32;;;7.50;99.70;;;6.79;100.00;101431.25;4987740;28;20057;-76
2022/04/28 03:39:44;;;;;;;7.83;6.53;;;7.90;99.90;;;6.75;100.00;101438.19;5002849;28;20097;-76
2022/04/28 03:42:11;;;;;;;9.00;7.93;;;7.30;99.90;;;6.79;100.00;101432.16;5003999;28;20081;-77
2022/04/28 03:44:38;;;;;;;9.18;7.38;;;7.40;99.90;;;6.64;100.00;101434.63;4987237;28;20130;-76
2022/04/28 03:47:07;;;;;;;8.13;7.07;;;8.40;99.90;;;6.38;100.00;101443.06;4984752;28;20380;-76
2022/04/28 03:49:34;;;;;;;6.88;6.25;;;7.10;99.90;;;6.32;100.00;101451.72;5002778;28;20042;-76
2022/04/28 03:52:05;;;;;;;8.02;7.25;;;7.10;99.90;;;6.44;100.00;101443.13;5003495;28;20109;-76
2022/04/28 03:54:33;;;;;;;7.00;6.18;;;7.00;99.90;;;6.31;100.00;101446.47;5003483;28;20042;-76
2022/04/28 03:57:01;;;;;;;7.50;6.78;;;7.00;99.90;;;6.23;100.00;101447.28;5003661;28;20077;-77
2022/04/28 03:59:31;;;;;;;7.90;6.47;;;7.00;99.90;;;6.37;100.00;101451.78;5002812;28;20414;-76
2022/04/28 04:02:16;;;;;;;7.57;6.78;;;6.90;99.90;;;6.40;100.00;101446.56;5003658;28;20054;-76
2022/04/28 04:04:44;;;;;;;7.43;6.72;;;6.90;99.90;;;6.35;100.00;101449.13;5005265;28;20458;-77
2022/04/28 04:07:12;;;;;;;8.10;6.82;;;8.70;99.90;;;6.33;100.00;101452.63;4988748;28;20101;-77
2022/04/28 04:09:40;;;;;;;9.27;7.75;;;6.80;99.90;;;6.20;100.00;101464.66;5003750;28;20078;-77
2022/04/28 04:12:11;;;;;;;8.90;8.00;;;6.80;99.90;;;6.22;100.00;101462.91;4988352;28;20042;-77
2022/04/28 04:14:57;;;;;;;10.93;7.90;;;6.80;99.90;;;6.08;100.00;101470.59;4988466;28;20050;-76
2022/04/28 04:17:28;;;;;;;13.27;8.38;;;6.80;99.90;;;6.06;100.00;101470.56;4969967;28;20038;-76
2022/04/28 04:20:03;;;;;;;8.95;7.38;;;6.70;99.90;;;6.16;100.00;101474.19;5027514;28;20065;-73
2022/04/28 04:22:31;;;;;;;8.98;7.47;;;6.70;99.90;;;5.95;100.00;101477.41;4998152;28;20042;-78
2022/04/28 04:24:58;;;;;;;12.52;7.85;;;7.10;99.90;;;6.05;100.00;101475.81;4990171;28;20041;-78
2022/04/28 04:27:25;;;;;;;8.52;7.28;;;6.70;99.90;;;6.13;100.00;101484.59;4986690;28;20042;-78
2022/04/28 04:33:17;;;;;;;7.85;6.88;;;6.60;99.90;;;6.19;100.00;101478.56;5001173;28;20042;-75
2022/04/28 04:35:44;;;;;;;11.43;8.02;;;6.60;99.90;;;6.20;100.00;101485.56;4986299;28;20038;-76
2022/04/28 04:38:11;;;;;;;9.93;7.35;;;6.60;99.90;;;6.19;100.00;101494.25;4965391;28;20051;-76
2022/04/28 04:40:38;;;;;;;7.40;6.70;;;6.60;99.90;;;6.22;100.00;101495.19;4987622;28;20053;-76
2022/04/28 04:43:13;;;;;;;8.18;7.20;;;6.60;99.90;;;6.19;100.00;101500.38;4980388;28;20046;-75
2022/04/28 04:45:44;;;;;;;8.32;7.22;;;6.70;99.90;;;6.17;100.00;101502.09;4994165;28;20062;-75
2022/04/28 04:48:31;;;;;;;8.95;7.40;;;6.60;99.90;;;6.20;100.00;101511.69;5000124;28;20062;-76
2022/04/28 04:51:03;;;;;;;11.60;8.70;;;6.60;99.90;;;6.25;100.00;101510.03;4986962;28;20046;-76
2022/04/28 04:54:03;;;;;;;9.18;8.27;;;7.80;99.90;;;6.09;100.00;101508.94;4986520;28;20415;-76
2022/04/28 04:56:33;;;;;;;8.35;7.55;;;6.60;99.90;;;6.10;100.00;101508.09;4986792;28;20051;-76
2022/04/28 04:59:00;;;;;;;8.07;7.00;;;6.60;99.90;;;6.15;100.00;101524.69;4969193;28;20072;-76
2022/04/28 05:01:28;;;;;;;8.20;7.40;;;7.30;99.90;;;6.10;100.00;101515.91;4968436;28;20038;-76
2022/04/28 05:04:13;;;;;;;12.18;8.13;;;6.80;99.90;;;6.15;100.00;101513.38;4992005;28;20165;-76
2022/04/28 05:07:00;;;;;;;8.27;7.47;;;6.70;99.90;;;6.19;100.00;101517.78;4992098;28;20058;-75
2022/04/28 05:09:31;;;;;;;8.60;7.68;;;7.50;99.90;;;6.03;100.00;101517.56;4959312;28;20085;-76
2022/04/28 05:11:58;;;;;;;10.40;7.43;;;6.70;99.90;;;6.10;100.00;101521.16;4974632;28;20065;-76
2022/04/28 05:14:34;;;;;;;8.20;7.30;;;6.70;99.90;;;6.22;100.00;101526.53;4989624;28;20046;-76
2022/04/28 05:17:02;;;;;;;8.93;7.53;;;6.80;99.90;;;6.28;100.00;101524.84;4957678;28;20039;-75
2022/04/28 05:19:52;;;;;;;9.15;8.35;;;6.80;99.90;;;6.41;100.00;101533.75;4977994;28;20061;-75
2022/04/28 05:22:38;;;;;;;9.13;8.27;;;6.90;99.90;;;6.52;100.00;101542.56;5004644;28;20064;-75
2022/04/28 05:25:25;;;;;;;8.18;7.35;;;6.90;99.90;;;6.49;100.00;101546.03;4990430;28;20061;-75
2022/04/28 05:28:10;;;;;;;10.52;7.85;;;6.90;99.90;;;6.53;100.00;101541.69;5007770;28;20097;-76
2022/04/28 05:30:56;;;;;;;9.52;8.48;;;7.30;99.90;;;6.53;100.00;101544.31;5004274;28;20056;-75
2022/04/28 05:33:41;;;;;;;8.02;7.13;;;7.10;99.90;;;6.56;100.00;101553.94;5006481;28;20050;-74
2022/04/28 05:36:21;;;;;;;8.43;7.63;;;7.10;99.90;;;6.58;100.00;101552.22;4990984;28;20058;-75
2022/04/28 05:38:48;;;;;;;8.70;7.78;;;7.60;99.90;;;6.75;100.00;101547.19;4991934;28;20133;-75
2022/04/28 05:41:17;;;;;;;9.00;7.32;;;7.30;99.90;;;6.92;100.00;101556.09;4991251;28;20054;-75
2022/04/28 05:46:30;;;;;;;8.50;7.70;;;7.30;99.90;;;7.14;100.00;101552.81;5004845;28;20113;-75
2022/04/28 05:48:58;;;;;;;9.02;7.88;;;7.40;99.90;;;7.29;100.00;101555.56;4974155;28;20042;-75
2022/04/28 05:51:25;;;;;;;8.63;7.53;;;7.50;99.90;;;7.45;100.00;101551.31;4975389;28;20042;-75
2022/04/28 05:53:52;;;;;;;8.32;7.53;;;8.10;99.90;;;7.55;100.00;101554.88;4990808;28;20104;-75
2022/04/28 05:56:21;;;;;;;8.23;7.13;;;7.70;99.90;;;7.69;100.00;101561.97;4975016;28;20088;-75
2022/04/28 05:58:55;;;;;;;10.63;7.75;;;7.80;99.90;;;7.83;100.00;101562.09;4975002;28;20039;-74
2022/04/28 06:01:41;;;;;;;8.07;7.28;;;8.70;99.90;;;7.92;100.00;101560.41;4991424;28;20233;-74
2022/04/28 06:04:11;;;;;;;8.07;7.32;;;8.10;99.90;;;8.04;100.00;101572.69;4976606;28;20092;-75
2022/04/28 06:06:40;;;;;;;8.00;7.23;;;8.90;99.90;;;8.08;100.00;101565.72;4975101;28;20100;-76
2022/04/28 06:09:21;;;;;;;7.90;6.40;;;8.20;99.90;;;8.22;100.00;101571.94;4976168;28;20731;-75
2022/04/28 06:11:48;;;;;;;7.82;6.95;;;8.40;99.90;;;8.32;100.00;101567.59;4974263;28;20046;-75
2022/04/28 06:14:16;;;;;;;8.30;7.50;;;8.50;99.90;;;8.45;100.00;101576.38;5004492;28;20725;-77
2022/04/28 06:16:45;;;;;;;10.27;7.43;;;8.60;99.90;;;8.53;100.00;101573.81;4989500;28;20046;-75
2022/04/28 06:19:25;;;;;;;9.60;7.60;;;8.70;99.90;;;8.65;100.00;101583.47;4974549;28;20503;-76
2022/04/28 06:22:12;;;;;;;8.13;7.32;;;8.80;99.90;;;8.76;100.00;101587.03;4990101;28;20057;-76
2022/04/28 06:24:49;;;;;;;7.40;6.70;;;8.90;99.90;;;8.87;100.00;101583.56;4989163;28;20541;-76
2022/04/28 06:27:16;;;;;;;7.80;7.05;;;8.90;99.90;;;8.97;100.00;101587.94;4973792;28;20161;-76
2022/04/28 06:29:49;;;;;;;8.38;7.57;;;9.00;99.90;;;9.08;100.00;101591.47;4989111;28;20438;-75
2022/04/28 06:32:18;;;;;;;8.00;6.93;;;9.10;99.90;;;9.13;100.00;101587.97;4973360;28;20046;-75
2022/04/28 06:35:21;;;;;;;8.48;7.68;;;9.20;99.90;;;9.27;100.00;101580.13;4918733;29;20056;-76
2022/04/28 06:37:49;;;;;;;9.02;7.30;;;9.30;99.90;;;9.35;100.00;101581.00;4957936;28;20562;-77
2022/04/28 06:40:17;;;;;;;11.25;7.22;;;9.40;99.90;;;9.38;100.00;101582.75;4973195;28;20042;-77
2022/04/28 06:42:50;;;;;;;9.32;7.25;;;9.70;99.90;;;9.51;100.00;101582.75;4973542;28;20054;-76
2022/04/28 06:45:24;;;;;;;9.60;7.00;;;9.60;99.90;;;9.62;100.00;101589.75;4990740;28;20046;-76
2022/04/28 06:48:01;;;;;;;7.90;6.53;;;9.60;99.90;;;9.67;100.00;101588.00;4991188;28;20385;-77
2022/04/28 06:50:40;;;;;;;;;;;9.80;99.90;;;9.83;100.00;101591.50;4989188;28;20047;-76
2022/04/28 06:53:43;;;;;;;8.75;7.20;;;9.70;99.90;;;9.89;100.00;101599.38;4990185;28;19922;-77
2022/04/28 06:56:11;;;;;;;8.02;6.82;;;9.90;99.90;;;10.01;100.00;101592.34;4972818;28;20134;-77
2022/04/28 06:59:04;;;;;;;8.30;7.50;;;10.30;99.90;;;10.06;100.00;101585.31;4992372;28;20536;-76
2022/04/28 07:01:33;;;;;;;9.50;7.72;;;10.10;99.90;;;10.17;100.00;101591.44;4957440;28;20080;-76
2022/04/28 07:04:10;;;;;;;7.85;7.05;;;10.20;99.90;;;10.31;100.00;101586.16;4988572;28;20531;-74
2022/04/28 07:06:38;;;;;;;15.73;8.25;;;10.30;99.90;;;10.42;100.00;101591.41;4987644;28;20065;-75
2022/04/28 07:09:06;;;;;;;8.05;7.25;;;10.40;99.90;;;10.55;100.00;101605.38;4987893;28;20545;-76
2022/04/28 07:11:34;;;;;;;8.63;6.82;;;10.50;99.90;;;10.66;100.00;101592.16;4972418;28;20049;-76
2022/04/28 07:14:22;;;;;;;8.93;7.30;;;10.60;99.90;;;10.81;100.00;101598.22;4974670;28;20054;-77
2022/04/28 07:17:13;;;;;;;8.68;7.75;;;10.30;99.90;;;10.90;100.00;101599.03;4988092;28;20050;-77
2022/04/28 07:19:52;;;;;;;7.57;6.88;;;10.90;99.90;;;10.99;100.00;101603.38;4973407;28;20039;-76
2022/04/28 07:22:19;;;;;;;8.15;7.35;;;11.00;99.80;;;11.08;100.00;101597.19;4956702;28;20046;-75
2022/04/28 07:24:46;;;;;;;11.88;7.93;;;12.20;99.90;;;11.17;100.00;101601.53;4963862;28;20058;-74
2022/04/28 07:27:14;;;;;;;8.50;7.70;;;11.10;99.60;;;11.26;100.00;101601.47;5009259;28;20061;-75
2022/04/28 07:29:45;;;;;;;7.65;6.90;;;11.30;99.70;;;11.40;100.00;101598.75;4974434;28;20093;-74
2022/04/28 07:32:14;;;;;;;9.07;7.03;;;11.30;99.70;;;11.48;100.00;101593.41;4973379;28;20053;-75
2022/04/28 07:35:13;;;;;;;8.50;7.60;;;11.40;99.60;;;11.60;100.00;101600.34;4954276;28;20554;-75
2022/04/28 07:37:59;;;;;;;9.95;7.13;;;11.50;99.40;;;11.66;100.00;101605.53;4974884;28;20542;-75
2022/04/28 07:40:41;;;;;;;10.88;6.80;;;11.60;99.10;;;11.81;100.00;101607.19;4974453;28;20058;-75
2022/04/28 07:43:16;;;;;;;7.78;7.03;;;11.70;99.10;;;11.96;100.00;101607.94;5005612;28;20140;-76
2022/04/28 07:45:50;;;;;;;10.38;7.78;;;11.80;99.20;;;12.08;100.00;101602.53;5006866;28;20051;-77
2022/04/28 07:48:18;;;;;;;8.25;7.45;;;11.90;99.00;;;12.22;100.00;101601.50;4988656;28;20034;-77
2022/04/28 07:50:46;;;;;;;7.10;6.40;;;12.10;99.00;;;12.37;100.00;101603.13;4983938;28;20073;-78
2022/04/28 07:53:26;;;;;;;8.23;6.85;;;12.20;98.90;;;12.59;100.00;101607.25;5000559;28;20085;-76
2022/04/28 07:56:13;;;;;;;9.15;6.43;;;12.40;98.70;;;12.76;100.00;101601.75;4991905;28;20141;-76
2022/04/28 07:58:44;;;;;;;;;;;12.50;98.70;;;12.96;100.00;101607.66;4988963;28;20059;-76
2022/04/28 08:01:55;;;;;;;10.32;7.15;;;12.90;98.60;;;13.09;100.00;101608.34;5007667;28;19922;-76
2022/04/28 08:04:25;;;;;;;10.93;8.60;;;12.90;98.00;;;13.17;100.00;101606.44;4989267;28;20400;-76
2022/04/28 08:06:59;;;;;;;11.77;8.10;;;13.00;97.70;;;13.25;100.00;101604.56;4973401;28;20422;-76
2022/04/28 08:09:27;;;;;;;8.05;7.25;;;13.10;97.30;;;13.34;100.00;101603.56;4982442;28;20054;-76
2022/04/28 08:11:55;;;;;;;9.75;7.05;;;13.20;97.30;;;13.50;100.00;101603.34;4980243;28;20038;-77
2022/04/28 08:14:23;;;;;;;6.80;5.97;;;13.30;97.30;;;13.61;100.00;101602.25;4972875;28;20073;-76
2022/04/28 08:16:55;;;;;;;7.55;6.25;;;13.40;96.80;;;13.82;100.00;101601.91;4972985;28;20047;-76
2022/04/28 08:19:23;;;;;;;7.20;6.05;;;13.60;97.00;;;13.97;100.00;101603.38;4987762;28;20034;-76
2022/04/28 08:21:58;;;;;;;6.30;5.70;;;13.70;96.80;;;14.07;100.00;101604.13;4988534;28;20042;-76
2022/04/28 08:24:25;;;;;;;6.90;5.60;;;13.80;96.40;;;14.15;100.00;101608.38;4971719;28;20050;-76
2022/04/28 08:26:54;;;;;;;7.82;6.05;;;13.90;96.10;;;14.29;100.00;101600.13;4972726;28;20050;-77
2022/04/28 08:29:22;;;;;;;6.45;5.80;;;14.10;95.90;;;14.41;100.00;101600.81;4956248;28;20050;-77
2022/04/28 08:31:55;;;;;;;6.32;5.63;;;14.20;95.40;;;14.50;100.00;101599.75;4973573;28;20050;-78
2022/04/28 08:34:22;;;;;;;5.85;4.95;;;14.30;95.20;;;14.58;100.00;101603.97;4971631;28;20054;-77
2022/04/28 08:36:51;;;;;;;7.20;5.22;;;14.40;95.40;;;14.63;98.01;101608.28;4990477;28;20058;-78
2022/04/28 08:39:25;;;;;;;5.70;5.10;;;14.50;94.70;;;14.68;94.62;101604.66;4976550;28;20096;-78
2022/04/28 08:41:53;;;;;;;6.45;4.70;;;14.60;94.30;;;14.84;93.78;101609.66;4976116;28;20050;-77
2022/04/28 08:44:26;;;;;;;6.57;5.05;;;14.60;94.30;;;14.84;95.79;101607.00;4992804;28;20066;-77
2022/04/28 08:47:09;;;;;;;5.30;4.80;;;14.70;94.40;;;14.98;95.43;101615.50;4992263;28;20050;-76
2022/04/28 08:49:42;;;;;;;6.40;4.93;;;14.80;94.30;;;15.03;92.92;101616.25;4976492;28;20042;-77
2022/04/28 08:52:39;;;;;;;5.00;4.50;;;14.80;94.10;;;15.05;94.07;101615.34;4988601;28;20058;-77
2022/04/28 08:55:17;;;;;;;7.53;5.20;;;14.90;94.10;;;15.15;92.64;101619.53;4978193;28;20069;-76
2022/04/28 08:57:45;;;;;;;6.60;4.25;;;15.00;94.00;;;15.35;90.46;101616.44;5007704;28;20042;-76
2022/04/28 09:00:12;;;;;;;6.18;4.63;;;15.10;93.90;;;15.36;83.40;101610.22;4991175;28;20046;-75
2022/04/28 09:03:00;;;;;;;4.65;4.20;;;15.20;93.10;;;15.49;80.59;101610.78;4961189;28;20051;-75
2022/04/28 09:05:48;;;;;;;5.82;4.72;;;15.30;92.80;;;15.62;72.78;101602.53;4977239;28;20046;-76
2022/04/28 09:08:45;;;;;;;5.20;4.63;;;15.40;91.70;;;15.70;80.40;101608.50;4938408;28;20138;-76
2022/04/28 09:11:40;;;;;;;5.55;4.43;;;15.70;92.50;;;15.82;80.45;101599.34;4978117;28;20039;-75
2022/04/28 09:14:27;;;;;;;5.47;3.67;;;15.60;92.60;;;16.03;80.99;101605.91;4976867;28;20060;-76
2022/04/28 09:17:02;;;;;;;5.10;3.80;;;15.80;92.60;;;16.19;65.88;101605.50;5006092;28;20042;-75
2022/04/28 09:19:39;;;;;;;3.97;3.42;;;15.90;90.70;;;16.34;61.90;101599.75;4974582;28;20046;-76
2022/04/28 09:22:23;;;;;;;;;;;16.00;90.10;;;16.52;61.12;101593.00;4977994;28;20058;-76
2022/04/28 09:24:57;;;;;;;4.20;3.55;;;16.20;88.80;;;16.55;62.06;101597.38;4990114;28;19927;-75
2022/04/28 09:27:25;;;;;;;4.65;3.50;;;16.30;89.00;;;16.70;62.79;101596.03;4973926;28;20054;-76
2022/04/28 09:29:55;;;;;;;6.13;4.22;;;16.40;89.20;;;16.80;62.65;101594.84;4972922;28;20046;-75
2022/04/28 09:32:25;;;;;;;4.47;3.75;;;16.50;89.30;;;16.77;56.90;101592.28;5003308;28;20043;-76
2022/04/28 09:35:15;;;;;;;4.80;3.50;;;16.60;85.80;;;16.89;58.82;101593.69;5002607;28;20043;-74
2022/04/28 09:38:09;;;;;;;5.47;3.78;;;16.70;86.90;;;17.00;56.84;101590.72;4977476;28;20411;-74
2022/04/28 09:43:43;;;;;;;4.85;3.65;;;16.90;82.50;;;17.12;55.12;101582.34;5005658;28;20050;-75
2022/04/28 09:46:13;;;;;;;;;;;17.00;83.20;;;17.24;56.58;101586.41;4974131;28;20136;-75
2022/04/28 09:48:42;;;;;;;4.07;3.67;;;17.00;83.60;;;17.21;54.87;101585.66;4988360;28;19922;-74
2022/04/28 09:51:22;;;;;;;3.80;3.40;;;17.10;82.90;;;17.35;54.88;101580.75;4972777;28;20062;-74
2022/04/28 09:54:13;;;;;;;3.83;3.10;;;17.10;82.90;;;17.47;50.94;101582.13;4995341;28;20487;-74
2022/04/28 09:56:48;;;;;;;5.20;3.35;;;17.20;79.70;;;17.49;49.73;101579.41;4988977;28;20142;-75
2022/04/28 09:59:20;;;;;;;3.28;2.97;;;17.30;77.70;;;17.63;49.95;101589.59;4973304;28;20047;-75
2022/04/28 10:01:49;;;;;;;5.72;3.30;;;17.40;77.80;;;17.68;48.41;101577.88;4985919;28;20054;-75
2022/04/28 10:04:16;;;;;;;4.32;3.30;;;17.30;76.10;;;17.73;48.58;101583.03;5004410;28;20058;-75
2022/04/28 10:07:02;;;;;;;3.60;3.08;;;17.50;75.60;;;17.81;47.30;101578.28;5002755;28;20159;-74
2022/04/28 10:09:32;;;;;;;5.65;3.50;;;17.60;74.20;;;17.90;45.51;101585.09;4989422;28;20054;-74
2022/04/28 10:12:07;;;;;;;6.60;3.20;;;17.60;71.20;;;17.96;48.41;101578.66;5012332;28;20094;-74
2022/04/28 10:14:56;;;;;;;5.78;3.42;;;17.70;74.30;;;18.04;46.77;101581.09;4992135;28;20051;-74
2022/04/28 10:18:10;;;;;;;4.60;3.17;;;17.80;72.80;;;18.23;45.79;101578.63;4972761;28;20057;-74
2022/04/28 10:20:42;;;;;;;5.90;2.80;;;17.80;71.20;;;18.24;44.03;101581.22;4985701;28;20113;-77
2022/04/28 10:32:24;;;;;;;3.78;3.28;;;18.20;64.20;;;18.62;41.53;101566.53;5002116;28;20094;-75
2022/04/28 10:34:59;;;;;;;4.05;3.40;;;18.40;62.80;;;18.68;41.44;101577.81;4974697;28;20117;-75
2022/04/28 10:37:45;;;;;;;3.30;2.92;;;18.40;63.30;;;18.84;38.77;101580.72;4988870;28;20049;-75
2022/04/28 10:40:16;;;;;;;3.20;2.80;;;18.50;59.20;;;18.91;39.38;101572.50;4973988;28;20054;-75
2022/04/28 10:42:46;;;;;;;4.20;2.80;;;19.40;59.50;;;18.93;39.44;101571.50;4989307;28;20054;-75
2022/04/28 10:45:25;;;;;;;2.97;2.22;;;18.70;58.80;;;19.05;38.79;101574.63;4988519;28;20042;-75
2022/04/28 10:51:20;;;;;;;4.07;2.70;;;18.90;58.20;;;19.42;37.93;101578.44;4987550;28;20145;-75
2022/04/28 10:54:19;;;;;;;4.32;2.83;;;19.00;57.00;;;19.48;35.82;101569.31;4975174;28;20056;-75
2022/04/28 10:56:50;;;;;;;3.92;2.50;;;19.20;53.90;;;19.53;35.73;101570.84;4972814;28;20070;-75
2022/04/28 10:59:29;;;;;;;2.67;2.38;;;19.30;53.60;;;19.67;34.92;101575.63;4989127;28;20074;-76
2022/04/28 11:01:57;;;;;;;4.37;2.63;;;19.40;52.20;;;19.61;36.05;101569.69;4988293;28;20045;-75
2022/04/28 11:04:25;;;;;;;3.95;2.50;;;19.40;52.80;;;19.84;34.96;101560.66;4972956;28;20066;-75
2022/04/28 11:06:58;;;;;;;3.75;2.78;;;19.50;52.10;;;19.88;35.16;101564.94;4988516;28;20064;-75
2022/04/28 11:09:39;;;;;;;5.07;2.90;;;19.60;51.50;;;20.21;34.71;101571.50;4971578;28;20054;-74
2022/04/28 11:12:10;;;;;;;3.55;2.97;;;19.80;51.30;;;20.02;34.55;101572.34;4990518;28;20500;-74
2022/04/28 11:14:59;;;;;;;;;;;19.80;50.40;;;19.96;34.49;101565.47;4991113;28;20046;-76
2022/04/28 11:17:33;;;;;;;3.17;2.78;;;19.80;50.60;;;20.08;36.24;101565.84;4987611;28;20370;-76